TimeMST,TemperatureF,Dew PointF,Humidity,Sea Level PressureIn,VisibilityMPH,Wind Direction,Wind SpeedMPH,Gust SpeedMPH,PrecipitationIn,Events,Conditions,WindDirDegrees,DateUTC
12:34 AM,-2.2,-2.2,100,30.58,8.0,Calm,Calm,-,N/A,,Clear,0,2013-01-18 07:34:00
12:39 AM,-2.2,-2.2,100,30.59,1.5,Calm,Calm,-,N/A,,Clear,0,2013-01-18 07:39:00
12:44 AM,-2.2,-2.2,100,30.59,0.5,Calm,Calm,-,N/A,Fog,Light Freezing Fog,0,2013-01-18 07:44:00
12:58 AM,-1.7,-1.7,100,30.79,0.2,Calm,Calm,-,N/A,Fog,Light Freezing Fog,0,2013-01-18 07:58:00
1:09 AM,-2.2,-2.2,100,30.60,0.5,Calm,Calm,-,N/A,Fog,Light Freezing Fog,0,2013-01-18 08:09:00
1:14 AM,-2.2,-2.2,100,30.59,0.8,Calm,Calm,-,N/A,,Clear,0,2013-01-18 08:14:00
1:20 AM,-2.2,-2.2,100,30.60,0.5,Calm,Calm,-,N/A,Fog,Light Freezing Fog,0,2013-01-18 08:20:00
1:25 AM,-0.4,-0.4,100,30.60,0.2,Calm,Calm,-,N/A,Fog,Light Freezing Fog,0,2013-01-18 08:25:00
2:58 AM,-1.5,-1.5,100,30.78,0.2,Calm,Calm,-,N/A,Fog,Light Freezing Fog,0,2013-01-18 09:58:00
3:20 AM,-2.2,-2.2,100,30.59,0.5,NE,2.3,-,N/A,Fog,Light Freezing Fog,40,2013-01-18 10:20:00
3:26 AM,-2.2,-2.2,100,30.59,2.0,NE,2.3,-,N/A,,Overcast,40,2013-01-18 10:26:00
3:42 AM,-0.4,-0.4,100,30.59,1.8,NE,1.2,-,N/A,,Overcast,40,2013-01-18 10:42:00
3:47 AM,-0.4,-0.4,100,30.59,1.0,Calm,Calm,-,N/A,,Mist,0,2013-01-18 10:47:00
3:53 AM,-2.2,-2.2,100,30.58,0.5,Calm,Calm,-,N/A,Fog,Light Freezing Fog,0,2013-01-18 10:53:00
3:58 AM,-1.5,-1.5,100,30.77,0.5,Calm,Calm,-,N/A,Fog,Light Freezing Fog,0,2013-01-18 10:58:00
4:03 AM,-2.2,-2.2,100,30.58,1.0,Calm,Calm,-,N/A,,Mist,0,2013-01-18 11:03:00
4:08 AM,-2.2,-2.2,100,30.57,0.5,Calm,Calm,-,N/A,Fog,Light Freezing Fog,0,2013-01-18 11:08:00
4:51 AM,-2.2,-2.2,100,30.56,0.5,Calm,Calm,-,N/A,Fog,Light Freezing Fog,0,2013-01-18 11:51:00
5:03 AM,-2.2,-2.2,100,30.56,0.2,Calm,Calm,-,N/A,Fog,Light Freezing Fog,0,2013-01-18 12:03:00
6:48 AM,-2.2,-2.2,100,30.56,0.5,Calm,Calm,-,N/A,Fog,Light Freezing Fog,0,2013-01-18 13:48:00
6:58 AM,-2.2,-2.2,100,30.77,0.2,Calm,Calm,-,N/A,Fog,Light Freezing Fog,0,2013-01-18 13:58:00
7:50 AM,1.4,1.4,100,30.57,0.1,Calm,Calm,-,N/A,Fog,Light Freezing Fog,0,2013-01-18 14:50:00
7:57 AM,1.4,1.4,100,30.77,0.1,Calm,Calm,-,N/A,Fog,Light Freezing Fog,0,2013-01-18 14:57:00
8:58 AM,1.4,1.4,100,30.79,0.1,Calm,Calm,-,N/A,Fog,Light Freezing Fog,0,2013-01-18 15:58:00
9:19 AM,1.4,1.4,100,30.58,0.1,Calm,Calm,-,N/A,Fog,Light Freezing Fog,0,2013-01-18 16:19:00
9:25 AM,1.4,1.4,100,30.58,0.2,Calm,Calm,-,N/A,Fog,Light Freezing Fog,0,2013-01-18 16:25:00
9:31 AM,1.4,1.4,100,30.58,0.2,Calm,Calm,-,N/A,Fog,Light Freezing Fog,0,2013-01-18 16:31:00
9:54 AM,1.4,1.4,100,30.58,0.4,Calm,Calm,-,N/A,Fog,Light Freezing Fog,0,2013-01-18 16:54:00
9:58 AM,1.9,1.9,100,30.79,0.4,Calm,Calm,-,N/A,Fog,Light Freezing Fog,0,2013-01-18 16:58:00
10:08 AM,3.2,3.2,100,30.58,0.5,Calm,Calm,-,N/A,Fog,Light Freezing Fog,0,2013-01-18 17:08:00
10:20 AM,3.2,3.2,100,30.58,0.8,Calm,Calm,-,N/A,,Mist,0,2013-01-18 17:20:00
10:32 AM,3.2,3.2,100,30.58,1.2,Calm,Calm,-,N/A,,Mist,0,2013-01-18 17:32:00
10:50 AM,5.0,5.0,100,30.58,1.5,Calm,Calm,-,N/A,,Scattered Clouds,0,2013-01-18 17:50:00
10:55 AM,6.8,6.8,100,30.58,2.0,Calm,Calm,-,N/A,,Scattered Clouds,0,2013-01-18 17:55:00
10:58 AM,7.0,7.0,100,30.78,2.0,Calm,Calm,-,N/A,,Scattered Clouds,0,2013-01-18 17:58:00
11:03 AM,6.8,6.8,100,30.58,2.5,Calm,Calm,-,N/A,,Partly Cloudy,0,2013-01-18 18:03:00
11:13 AM,6.8,6.8,100,30.58,3.0,SE,2.3,-,N/A,,Clear,140,2013-01-18 18:13:00
11:42 AM,8.6,8.6,100,30.58,3.0,WNW,2.3,-,N/A,,Partly Cloudy,290,2013-01-18 18:42:00
11:58 AM,9.5,9.5,100,30.78,3.0,West,3.5,-,N/A,,Partly Cloudy,280,2013-01-18 18:58:00
12:58 PM,11.7,11.7,100,30.75,7.0,WSW,3.5,-,N/A,,Clear,240,2013-01-18 19:58:00
1:58 PM,10.9,10.9,100,30.72,6.0,WNW,2.3,-,N/A,,Partly Cloudy,290,2013-01-18 20:58:00
2:58 PM,12.2,12.2,100,30.71,6.0,West,2.3,-,N/A,,Partly Cloudy,280,2013-01-18 21:58:00
3:58 PM,12.6,12.6,100,30.71,10.0,NW,2.3,-,N/A,,Clear,310,2013-01-18 22:58:00
4:58 PM,12.2,12.2,100,30.71,10.0,NW,2.3,-,N/A,,Clear,320,2013-01-18 23:58:00
5:58 PM,9.7,9.7,100,30.71,9.0,North,3.5,-,N/A,,Clear,360,2013-01-19 00:58:00
6:58 PM,3.9,3.9,100,30.74,10.0,Calm,Calm,-,N/A,,Clear,0,2013-01-19 01:58:00
7:58 PM,3.2,3.2,100,30.52,7.0,Calm,Calm,-,N/A,,Clear,0,2013-01-19 02:58:00
8:34 PM,1.4,1.4,100,30.50,10.0,Calm,Calm,-,N/A,,Clear,0,2013-01-19 03:34:00
8:58 PM,1.9,1.9,100,30.50,9.0,NNE,5.8,-,N/A,,Clear,20,2013-01-19 03:58:00
9:58 PM,3.2,3.2,100,30.73,8.0,WNW,1.2,-,N/A,,Clear,290,2013-01-19 04:58:00
10:58 PM,1.6,1.6,100,30.72,10.0,Calm,Calm,-,N/A,,Clear,0,2013-01-19 05:58:00
11:53 PM,-0.4,-0.4,100,30.53,10.0,Calm,Calm,-,N/A,,Clear,0,2013-01-19 06:53:00
11:58 PM,-0.6,-0.6,100,30.73,10.0,Calm,Calm,-,N/A,,Clear,0,2013-01-19 06:58:00